createdAt,value
2023-07-18T01:41:04.805Z,13.00
2023-07-18T01:43:31.637Z,12.90
2023-07-18T01:46:00.030Z,12.90
2023-07-18T01:48:27.583Z,12.90
2023-07-18T01:50:54.650Z,12.90
2023-07-18T01:53:21.472Z,12.90
2023-07-18T01:55:48.243Z,12.90
2023-07-18T01:58:15.064Z,12.90
2023-07-18T02:00:41.923Z,12.90
2023-07-18T02:03:08.942Z,12.90
2023-07-18T02:05:35.876Z,12.90
2023-07-18T02:08:02.743Z,12.90
2023-07-18T02:10:29.604Z,12.90
2023-07-18T02:13:02.895Z,12.80
2023-07-18T02:15:30.226Z,12.80
2023-07-18T02:17:57.300Z,12.80
2023-07-18T02:20:24.373Z,12.80
2023-07-18T02:22:51.494Z,12.80
2023-07-18T02:25:19.304Z,12.80
2023-07-18T02:27:46.580Z,12.80
2023-07-18T02:30:14.030Z,12.80
2023-07-18T02:32:41.706Z,12.80
2023-07-18T02:35:09.946Z,12.80
2023-07-18T02:37:37.420Z,12.80
2023-07-18T02:40:13.882Z,12.80
2023-07-18T02:42:40.700Z,12.80
2023-07-18T02:45:10.205Z,12.90
2023-07-18T02:47:38.084Z,12.90
2023-07-18T02:50:05.610Z,12.90
2023-07-18T02:52:32.792Z,12.90
2023-07-18T02:54:59.791Z,12.80
2023-07-18T02:57:26.749Z,12.90
2023-07-18T02:59:53.633Z,12.90
2023-07-18T03:02:21.986Z,12.90
2023-07-18T03:04:49.130Z,12.90
2023-07-18T03:07:18.840Z,12.90
2023-07-18T03:09:46.464Z,12.90
2023-07-18T03:12:13.473Z,12.90
2023-07-18T03:14:40.666Z,12.90
2023-07-18T03:17:07.635Z,12.80
2023-07-18T03:19:34.486Z,12.80
2023-07-18T03:22:01.363Z,12.80
2023-07-18T03:24:28.167Z,12.80
2023-07-18T03:26:54.983Z,12.80
2023-07-18T03:29:21.790Z,12.80
2023-07-18T03:31:48.678Z,12.80
2023-07-18T03:34:15.480Z,12.80
2023-07-18T03:36:42.311Z,12.80
2023-07-18T03:39:09.129Z,12.80
2023-07-18T03:41:35.952Z,12.80
2023-07-18T03:44:02.752Z,12.80
2023-07-18T03:46:29.616Z,12.80
2023-07-18T03:48:56.507Z,12.80
2023-07-18T03:51:24.297Z,12.70
2023-07-18T03:53:55.501Z,12.70
2023-07-18T03:56:22.799Z,12.70
2023-07-18T03:58:51.545Z,12.70
2023-07-18T04:01:20.589Z,12.70
2023-07-18T04:03:47.736Z,12.80
2023-07-18T04:06:20.587Z,12.80
2023-07-18T04:08:47.526Z,12.80
2023-07-18T04:11:14.458Z,12.80
2023-07-18T04:13:41.487Z,12.80
2023-07-18T04:16:08.554Z,12.80
2023-07-18T04:18:35.600Z,12.90
2023-07-18T04:21:03.854Z,12.90
2023-07-18T04:23:31.209Z,12.90
2023-07-18T04:26:03.362Z,12.90
2023-07-18T04:28:37.991Z,13.00
2023-07-18T04:31:05.071Z,13.00
2023-07-18T04:33:36.615Z,13.00
2023-07-18T04:36:05.449Z,13.00
2023-07-18T04:38:32.333Z,13.10
2023-07-18T04:40:59.600Z,13.10
2023-07-18T04:43:26.420Z,13.20
2023-07-18T04:45:53.236Z,13.30
2023-07-18T04:48:20.642Z,13.30
2023-07-18T04:50:51.501Z,13.40
2023-07-18T04:53:18.500Z,13.50
2023-07-18T04:55:45.793Z,13.50
2023-07-18T04:58:12.626Z,13.60
2023-07-18T05:00:39.437Z,13.70
2023-07-18T05:03:06.727Z,13.80
2023-07-18T05:05:33.888Z,13.90
2023-07-18T05:08:01.038Z,14.00
2023-07-18T05:10:28.003Z,14.00
2023-07-18T05:12:55.707Z,14.10
2023-07-18T05:15:23.188Z,14.20
2023-07-18T05:17:50.414Z,14.20
2023-07-18T05:20:17.594Z,14.30
2023-07-18T05:22:45.821Z,14.30
2023-07-18T05:25:14.775Z,14.40
2023-07-18T05:27:42.328Z,14.40
2023-07-18T05:30:28.467Z,14.40
2023-07-18T05:32:55.544Z,14.40
2023-07-18T05:35:22.863Z,14.40
2023-07-18T05:37:49.791Z,14.50
2023-07-18T05:40:18.386Z,14.50
2023-07-18T05:42:48.882Z,14.50
2023-07-18T05:45:16.398Z,14.50
2023-07-18T05:47:43.734Z,14.60
2023-07-18T05:50:11.458Z,14.60
2023-07-18T05:52:38.895Z,14.60
2023-07-18T05:55:06.765Z,14.60
2023-07-18T05:57:33.710Z,14.60
2023-07-18T06:00:00.736Z,14.60
2023-07-18T06:02:27.744Z,14.60
2023-07-18T06:04:54.751Z,14.60
2023-07-18T06:07:24.395Z,14.70
2023-07-18T06:09:53.415Z,14.70
2023-07-18T06:12:20.533Z,14.80
2023-07-18T06:14:47.554Z,14.80
2023-07-18T06:17:19.904Z,14.90
2023-07-18T06:19:49.637Z,15.00
2023-07-18T06:22:16.496Z,15.10
2023-07-18T06:24:43.334Z,15.20
2023-07-18T06:27:10.261Z,15.30
2023-07-18T06:29:37.272Z,15.50
2023-07-18T06:32:06.658Z,15.50
2023-07-18T06:34:34.530Z,15.60
2023-07-18T06:37:03.741Z,15.70
2023-07-18T06:39:30.879Z,15.70
2023-07-18T06:41:58.902Z,15.70
2023-07-18T06:44:26.074Z,15.60
2023-07-18T06:46:54.229Z,15.60
2023-07-18T06:49:33.602Z,15.60
2023-07-18T06:52:00.607Z,15.70
2023-07-18T06:54:27.483Z,15.70
2023-07-18T06:56:57.001Z,15.80
2023-07-18T06:59:25.635Z,15.80
2023-07-18T07:01:53.168Z,15.90
2023-07-18T07:04:20.794Z,15.90
2023-07-18T07:06:48.464Z,16.00
2023-07-18T07:09:18.156Z,16.10
2023-07-18T07:11:45.101Z,16.20
2023-07-18T07:14:13.047Z,16.30
2023-07-18T07:16:40.729Z,16.30
2023-07-18T07:19:07.969Z,16.40
2023-07-18T07:21:35.306Z,16.50
2023-07-18T07:24:05.120Z,16.60
2023-07-18T07:26:32.116Z,16.60
2023-07-18T07:28:59.144Z,16.70
2023-07-18T07:31:26.269Z,16.70
2023-07-18T07:33:54.572Z,16.80
2023-07-18T07:36:22.530Z,16.80
2023-07-18T07:38:53.167Z,16.70
2023-07-18T07:41:20.300Z,16.80
2023-07-18T07:43:50.021Z,16.90
2023-07-18T07:46:17.328Z,17.00
2023-07-18T07:48:44.522Z,17.10
2023-07-18T07:51:18.237Z,17.20
2023-07-18T07:53:45.373Z,17.30
2023-07-18T07:56:12.319Z,17.40
2023-07-18T07:58:39.289Z,17.40
2023-07-18T08:01:06.231Z,17.40
2023-07-18T08:03:35.628Z,17.30
2023-07-18T08:06:02.630Z,17.20
2023-07-18T08:08:29.553Z,17.20
2023-07-18T08:10:56.473Z,17.30
2023-07-18T08:13:25.361Z,17.40
2023-07-18T08:15:53.345Z,17.50
2023-07-18T08:18:23.312Z,17.60
2023-07-18T08:20:50.377Z,17.60
2023-07-18T08:23:17.396Z,17.50
2023-07-18T08:25:45.290Z,17.60
2023-07-18T08:28:12.210Z,17.70
2023-07-18T08:30:57.377Z,17.80
2023-07-18T08:33:25.507Z,17.90
2023-07-18T08:35:52.652Z,17.90
2023-07-18T08:38:45.074Z,18.10
2023-07-18T08:41:18.779Z,18.10
2023-07-18T08:43:49.406Z,18.00
2023-07-18T08:46:26.007Z,17.90
2023-07-18T08:48:54.525Z,17.80
2023-07-18T08:51:23.008Z,17.80
2023-07-18T08:53:50.253Z,17.80
2023-07-18T08:56:17.473Z,17.80
2023-07-18T08:58:50.835Z,17.80
2023-07-18T09:01:23.610Z,17.80
2023-07-18T09:03:51.206Z,17.80
2023-07-18T09:06:26.039Z,17.80
2023-07-18T09:08:59.131Z,17.70
2023-07-18T09:11:26.196Z,17.60
2023-07-18T09:13:58.085Z,17.50
2023-07-18T09:16:26.226Z,17.50
2023-07-18T09:19:09.760Z,17.40
2023-07-18T09:21:37.004Z,17.60
2023-07-18T09:24:04.038Z,17.80
2023-07-18T09:26:30.992Z,18.00
2023-07-18T09:28:58.008Z,18.50
2023-07-18T09:31:28.202Z,19.00
2023-07-18T09:33:55.823Z,19.20
2023-07-18T09:36:29.179Z,19.20
2023-07-18T09:38:59.344Z,19.00
2023-07-18T09:41:26.991Z,19.10
2023-07-18T09:44:00.168Z,19.30
2023-07-18T09:46:41.630Z,19.70
2023-07-18T09:49:14.363Z,20.10
2023-07-18T09:51:45.096Z,19.90
2023-07-18T09:54:12.801Z,19.70
2023-07-18T09:56:40.831Z,19.50
2023-07-18T09:59:09.628Z,19.30
2023-07-18T10:01:36.641Z,19.20
2023-07-18T10:04:04.221Z,19.00
2023-07-18T10:06:32.927Z,18.90
2023-07-18T10:09:00.311Z,18.80
2023-07-18T10:11:27.140Z,19.10
2023-07-18T10:13:56.974Z,19.10
2023-07-18T10:16:28.047Z,19.50
2023-07-18T10:18:55.345Z,19.80
2023-07-18T10:21:33.623Z,19.80
2023-07-18T10:24:25.693Z,20.40
2023-07-18T10:26:53.612Z,20.60
2023-07-18T10:29:20.615Z,21.00
2023-07-18T10:31:48.242Z,21.30
2023-07-18T10:34:16.967Z,21.20
2023-07-18T10:37:01.400Z,21.60
2023-07-18T10:39:40.207Z,21.40
2023-07-18T10:42:08.516Z,21.00
2023-07-18T10:44:39.658Z,20.90
2023-07-18T10:47:16.646Z,20.80
2023-07-18T10:49:44.069Z,20.70
2023-07-18T10:52:10.893Z,20.80
2023-07-18T10:54:37.788Z,20.80
2023-07-18T10:57:04.855Z,20.80
2023-07-18T10:59:31.780Z,20.80
2023-07-18T11:02:01.990Z,20.80
2023-07-18T11:04:29.513Z,20.60
2023-07-18T11:06:57.737Z,20.70
2023-07-18T11:09:24.582Z,21.40
2023-07-18T11:11:51.691Z,21.80
2023-07-18T11:14:19.883Z,22.40
2023-07-18T11:16:47.885Z,22.80
2023-07-18T11:19:17.542Z,22.40
2023-07-18T11:21:44.398Z,22.00
2023-07-18T11:24:11.285Z,21.60
2023-07-18T11:26:38.150Z,21.50
2023-07-18T11:29:05.177Z,21.30
2023-07-18T11:34:03.542Z,20.70
2023-07-18T11:36:36.860Z,20.40
2023-07-18T11:39:05.362Z,20.20
2023-07-18T11:41:36.003Z,20.50
2023-07-18T11:44:04.177Z,20.50
2023-07-18T11:46:45.168Z,20.60
2023-07-18T11:49:18.906Z,20.90
2023-07-18T11:51:45.845Z,21.00
2023-07-18T11:54:12.832Z,21.00
2023-07-18T11:56:39.756Z,21.20
2023-07-18T11:59:06.575Z,21.20
2023-07-18T12:01:37.297Z,21.20
2023-07-18T12:04:12.722Z,20.90
2023-07-18T12:06:40.206Z,20.60
2023-07-18T12:09:07.064Z,20.40
2023-07-18T12:11:35.007Z,20.20
2023-07-18T12:14:03.511Z,20.20
2023-07-18T12:16:30.442Z,21.00
2023-07-18T12:18:57.327Z,21.40
2023-07-18T12:21:24.214Z,21.30
2023-07-18T12:23:51.103Z,21.00
2023-07-18T12:26:17.942Z,20.80
2023-07-18T12:28:45.358Z,20.60
2023-07-18T12:31:13.003Z,20.60
2023-07-18T12:33:40.020Z,20.60
2023-07-18T12:36:06.880Z,20.70
2023-07-18T12:38:33.698Z,21.00
2023-07-18T12:41:00.553Z,21.50
2023-07-18T12:43:27.406Z,21.70
2023-07-18T12:45:55.149Z,21.90
2023-07-18T12:48:21.959Z,22.00
2023-07-18T12:50:48.848Z,21.80
2023-07-18T12:53:15.630Z,21.40
2023-07-18T12:55:42.452Z,21.10
2023-07-18T12:58:09.333Z,20.70
2023-07-18T13:00:36.212Z,20.50
2023-07-18T13:03:03.090Z,20.20
2023-07-18T13:05:30.232Z,20.00
2023-07-18T13:07:57.036Z,20.00
2023-07-18T13:10:23.865Z,20.00
2023-07-18T13:12:50.837Z,20.20
2023-07-18T13:15:18.840Z,20.60
2023-07-18T13:17:47.534Z,21.20
2023-07-18T13:20:14.518Z,21.80
2023-07-18T13:22:41.364Z,22.30
2023-07-18T13:25:08.488Z,22.10
2023-07-18T13:27:35.289Z,22.00
2023-07-18T13:30:02.155Z,21.60
2023-07-18T13:32:29.107Z,21.40
2023-07-18T13:34:55.947Z,21.30
2023-07-18T13:37:23.161Z,21.20
2023-07-18T13:39:50.004Z,21.10
2023-07-18T13:42:16.797Z,21.00
2023-07-18T13:44:43.685Z,21.00
2023-07-18T13:47:10.582Z,21.10
2023-07-18T13:49:50.069Z,21.50
2023-07-18T13:52:17.294Z,22.00
2023-07-18T13:54:44.162Z,22.00
2023-07-18T13:57:11.274Z,22.30
2023-07-18T13:59:38.070Z,22.50
2023-07-18T14:02:05.040Z,22.90
2023-07-18T14:04:32.177Z,22.90
2023-07-18T14:06:59.685Z,22.50
2023-07-18T14:09:26.568Z,22.00
2023-07-18T14:11:53.407Z,21.70
2023-07-18T14:14:20.230Z,21.40
2023-07-18T14:16:47.168Z,21.10
2023-07-18T14:19:14.866Z,21.00
2023-07-18T14:21:41.783Z,20.90
2023-07-18T14:24:08.665Z,20.70
2023-07-18T14:26:35.524Z,20.80
2023-07-18T14:29:02.364Z,21.20
2023-07-18T14:31:29.249Z,21.70
2023-07-18T14:34:05.468Z,21.90
2023-07-18T14:36:36.544Z,22.10
2023-07-18T14:39:04.621Z,22.30
2023-07-18T14:41:31.681Z,22.40
2023-07-18T14:43:59.114Z,22.60
2023-07-18T14:46:26.145Z,22.50
2023-07-18T14:48:53.840Z,22.60
2023-07-18T14:51:21.432Z,22.60
2023-07-18T14:53:48.572Z,22.60
2023-07-18T14:56:15.550Z,22.60
2023-07-18T14:58:43.409Z,22.50
2023-07-18T15:01:10.456Z,22.50
2023-07-18T15:03:38.360Z,22.60
2023-07-18T15:06:05.924Z,22.50
2023-07-18T15:08:34.896Z,22.60
2023-07-18T15:11:01.936Z,22.70
2023-07-18T15:13:29.050Z,22.70
2023-07-18T15:15:56.033Z,22.70
2023-07-18T15:18:23.614Z,22.60
2023-07-18T15:20:55.758Z,22.60
2023-07-18T15:23:24.859Z,22.60
2023-07-18T15:25:52.181Z,22.60
2023-07-18T15:28:19.044Z,22.60
2023-07-18T15:30:45.892Z,22.60
2023-07-18T15:35:47.010Z,22.70
2023-07-18T15:38:21.436Z,22.70
2023-07-18T15:40:48.805Z,22.60
2023-07-18T15:43:15.711Z,22.60
2023-07-18T15:45:48.195Z,22.50
2023-07-18T15:48:15.574Z,22.50
2023-07-18T15:50:42.554Z,22.20
2023-07-18T15:53:12.643Z,21.90
2023-07-18T15:55:39.455Z,21.70
2023-07-18T15:58:06.353Z,21.50
2023-07-18T16:00:33.494Z,21.60
2023-07-18T16:03:02.885Z,21.60
2023-07-18T16:05:29.857Z,21.60
2023-07-18T16:07:56.931Z,21.40
2023-07-18T16:10:24.004Z,21.30
2023-07-18T16:12:51.646Z,21.20
2023-07-18T16:15:18.627Z,21.30
2023-07-18T16:17:45.904Z,21.30
2023-07-18T16:20:14.253Z,21.30
2023-07-18T16:22:52.019Z,21.20
2023-07-18T16:25:18.938Z,21.10
2023-07-18T16:27:49.667Z,21.00
2023-07-18T16:30:19.874Z,20.80
2023-07-18T16:32:47.015Z,20.70
2023-07-18T16:35:14.212Z,20.60
2023-07-18T16:37:41.874Z,20.40
2023-07-18T16:40:10.815Z,20.30
2023-07-18T16:42:40.617Z,20.20
2023-07-18T16:45:10.400Z,20.10
2023-07-18T16:47:37.297Z,20.10
2023-07-18T16:50:04.501Z,20.10
2023-07-18T16:52:31.444Z,20.10
2023-07-18T16:54:58.263Z,20.10
2023-07-18T16:57:25.577Z,20.10
2023-07-18T16:59:52.440Z,20.20
2023-07-18T17:02:19.293Z,20.30
2023-07-18T17:04:46.627Z,20.30
2023-07-18T17:07:13.503Z,20.30
2023-07-18T17:09:40.578Z,20.20
2023-07-18T17:12:08.112Z,20.10
2023-07-18T17:14:35.042Z,20.00
2023-07-18T17:17:02.774Z,20.00
2023-07-18T17:19:29.615Z,19.90
2023-07-18T17:21:56.480Z,19.90
2023-07-18T17:24:23.339Z,19.80
2023-07-18T17:26:50.187Z,19.70
2023-07-18T17:29:18.920Z,19.70
2023-07-18T17:31:46.194Z,19.60
2023-07-18T17:34:13.243Z,19.50
2023-07-18T17:36:40.721Z,19.50
2023-07-18T17:39:08.939Z,19.50
2023-07-18T17:41:36.065Z,19.50
2023-07-18T17:44:04.705Z,19.50
2023-07-18T17:46:31.670Z,19.40
2023-07-18T17:48:58.558Z,19.40
2023-07-18T17:51:25.768Z,19.40
2023-07-18T17:53:54.771Z,19.30
2023-07-18T17:56:25.912Z,19.30
2023-07-18T17:58:52.947Z,19.20
2023-07-18T18:01:20.287Z,19.10
2023-07-18T18:03:47.413Z,19.10
2023-07-18T18:06:14.305Z,19.00
2023-07-18T18:08:41.871Z,19.00
2023-07-18T18:11:08.915Z,19.00
2023-07-18T18:13:35.884Z,18.90
2023-07-18T18:16:08.981Z,18.90
2023-07-18T18:18:36.918Z,18.90
2023-07-18T18:21:04.287Z,18.80
2023-07-18T18:26:01.537Z,18.70
2023-07-18T18:28:28.478Z,18.70
2023-07-18T18:30:55.361Z,18.70
2023-07-18T18:33:22.588Z,18.60
2023-07-18T18:35:52.095Z,18.60
2023-07-18T18:38:18.887Z,18.60
2023-07-18T18:40:45.867Z,18.50
2023-07-18T18:43:12.981Z,18.50
2023-07-18T18:45:39.928Z,18.40
2023-07-18T18:48:08.037Z,18.40
2023-07-18T18:50:34.980Z,18.30
2023-07-18T18:53:07.645Z,18.30
2023-07-18T18:55:36.309Z,18.20
2023-07-18T19:01:04.760Z,18.20
2023-07-18T19:03:31.675Z,18.10
2023-07-18T19:05:58.635Z,18.00
2023-07-18T19:08:25.420Z,17.90
2023-07-18T19:11:04.973Z,17.80
2023-07-18T19:13:35.274Z,17.70
2023-07-18T19:16:02.387Z,17.70
2023-07-18T19:18:30.203Z,17.60
2023-07-18T19:20:57.026Z,17.60
2023-07-18T19:23:24.238Z,17.50
2023-07-18T19:25:51.724Z,17.50
2023-07-18T19:28:19.161Z,17.50
2023-07-18T19:30:46.083Z,17.50
2023-07-18T19:33:13.030Z,17.40
2023-07-18T19:35:39.929Z,17.40
2023-07-18T19:38:07.066Z,17.30
2023-07-18T19:40:33.884Z,17.20
2023-07-18T19:43:04.122Z,17.10
2023-07-18T19:45:31.358Z,17.00
2023-07-18T19:47:58.344Z,16.90
2023-07-18T19:50:25.934Z,16.80
2023-07-18T19:52:52.757Z,16.70
2023-07-18T19:55:20.239Z,16.60
2023-07-18T19:57:48.926Z,16.60
2023-07-18T20:00:16.624Z,16.50
2023-07-18T20:02:43.494Z,16.50
2023-07-18T20:05:10.570Z,16.40
2023-07-18T20:07:40.306Z,16.30
2023-07-18T20:10:07.779Z,16.30
2023-07-18T20:12:34.901Z,16.20
2023-07-18T20:15:02.286Z,16.10
2023-07-18T20:17:29.214Z,16.00
2023-07-18T20:19:56.441Z,16.00
2023-07-18T20:22:26.185Z,15.90
2023-07-18T20:24:53.150Z,15.90
2023-07-18T20:27:20.224Z,15.80
2023-07-18T20:29:47.090Z,15.80
2023-07-18T20:32:13.942Z,15.70
2023-07-18T20:34:41.229Z,15.70
2023-07-18T20:37:11.193Z,15.70
2023-07-18T20:39:39.651Z,15.70
2023-07-18T20:42:10.493Z,15.60
2023-07-18T20:44:38.124Z,15.60
2023-07-18T20:47:05.565Z,15.60
2023-07-18T20:49:33.146Z,15.60
2023-07-18T20:52:00.916Z,15.60
2023-07-18T20:54:29.864Z,15.60
2023-07-18T20:56:56.796Z,15.60
2023-07-18T20:59:23.774Z,15.60
2023-07-18T21:01:50.678Z,15.60
2023-07-18T21:04:17.675Z,15.50
2023-07-18T21:06:45.113Z,15.50
2023-07-18T21:09:11.937Z,15.50
2023-07-18T21:11:39.703Z,15.50
2023-07-18T21:14:06.993Z,15.50
2023-07-18T21:16:40.570Z,15.50
2023-07-18T21:19:07.749Z,15.50
2023-07-18T21:21:35.032Z,15.50
2023-07-18T21:24:01.811Z,15.40
2023-07-18T21:26:28.664Z,15.40
2023-07-18T21:29:04.818Z,15.40
2023-07-18T21:31:33.360Z,15.40
2023-07-18T21:34:00.252Z,15.40
2023-07-18T21:36:27.040Z,15.40
2023-07-18T21:38:53.812Z,15.40
2023-07-18T21:41:22.247Z,15.40
2023-07-18T21:43:49.273Z,15.40
2023-07-18T21:46:16.411Z,15.40
2023-07-18T21:48:43.257Z,15.40
2023-07-18T21:51:10.077Z,15.40
2023-07-18T21:53:36.905Z,15.40
2023-07-18T21:56:03.985Z,15.40
2023-07-18T21:58:30.828Z,15.40
2023-07-18T22:00:57.588Z,15.50
2023-07-18T22:03:24.462Z,15.50
2023-07-18T22:05:51.373Z,15.50
2023-07-18T22:08:18.139Z,15.50
2023-07-18T22:10:45.052Z,15.50
2023-07-18T22:13:12.345Z,15.50
2023-07-18T22:15:39.460Z,15.50
2023-07-18T22:18:24.622Z,15.50
2023-07-18T22:20:53.421Z,15.50
2023-07-18T22:23:20.218Z,15.50
2023-07-18T22:25:52.837Z,15.40
2023-07-18T22:28:27.396Z,15.40
2023-07-18T22:30:54.683Z,15.40
2023-07-18T22:33:21.623Z,15.40
2023-07-18T22:35:48.429Z,15.40
2023-07-18T22:38:15.213Z,15.30
2023-07-18T22:40:42.014Z,15.30
2023-07-18T22:43:08.898Z,15.30
2023-07-18T22:45:35.875Z,15.30
2023-07-18T22:48:09.104Z,15.20
2023-07-18T22:50:35.903Z,15.20
2023-07-18T22:53:05.504Z,15.20
2023-07-18T22:55:33.502Z,15.20
2023-07-18T22:58:00.332Z,15.20
2023-07-18T23:00:27.250Z,15.20
2023-07-18T23:02:54.196Z,15.20
2023-07-18T23:05:21.130Z,15.20
2023-07-18T23:07:47.906Z,15.20
2023-07-18T23:10:14.717Z,15.10
2023-07-18T23:12:41.505Z,15.10
2023-07-18T23:15:08.943Z,15.10
2023-07-18T23:17:36.444Z,15.00
2023-07-18T23:20:04.167Z,15.00
2023-07-18T23:22:31.050Z,15.00
2023-07-18T23:24:58.422Z,14.90
2023-07-18T23:27:25.202Z,14.90
2023-07-18T23:29:52.018Z,14.80
2023-07-18T23:32:18.862Z,14.80
2023-07-18T23:34:45.776Z,14.80
2023-07-18T23:37:12.735Z,14.70
2023-07-18T23:39:39.569Z,14.70
2023-07-18T23:42:06.754Z,14.70
2023-07-18T23:44:33.906Z,14.80
2023-07-18T23:47:00.699Z,14.70
2023-07-18T23:49:27.456Z,14.70
2023-07-18T23:51:54.248Z,14.70
2023-07-18T23:54:21.056Z,14.70
2023-07-18T23:56:47.899Z,14.70
2023-07-18T23:59:14.711Z,14.70
